createdAt,value
2023-04-14T00:00:29.442Z,8.38
2023-04-14T00:01:29.404Z,8.39
2023-04-14T00:02:29.522Z,8.42
2023-04-14T00:03:29.561Z,8.44
2023-04-14T00:04:29.478Z,8.42
2023-04-14T00:05:29.366Z,8.42
2023-04-14T00:06:29.352Z,8.42
2023-04-14T00:07:29.332Z,8.39
2023-04-14T00:08:29.328Z,8.39
2023-04-14T00:09:29.319Z,8.38
2023-04-14T00:10:29.323Z,8.41
2023-04-14T00:11:29.292Z,8.39
2023-04-14T00:12:29.283Z,8.38
2023-04-14T00:13:29.298Z,8.38
2023-04-14T00:14:29.270Z,8.38
2023-04-14T00:15:29.273Z,8.35
2023-04-14T00:16:29.307Z,8.34
2023-04-14T00:17:29.248Z,8.34
2023-04-14T00:18:29.223Z,8.32
2023-04-14T00:19:29.206Z,8.32
2023-04-14T00:20:29.210Z,8.31
2023-04-14T00:21:29.184Z,8.28
2023-04-14T00:22:29.185Z,8.28
2023-04-14T00:23:29.182Z,8.28
2023-04-14T00:24:29.161Z,8.24
2023-04-14T00:25:29.151Z,8.28
2023-04-14T00:26:29.133Z,8.29
2023-04-14T00:27:29.125Z,8.29
2023-04-14T00:28:29.119Z,8.26
2023-04-14T00:29:29.097Z,8.23
2023-04-14T00:30:29.116Z,8.23
2023-04-14T00:31:29.150Z,8.21
2023-04-14T00:32:29.135Z,8.26
2023-04-14T00:33:29.059Z,8.31
2023-04-14T00:34:29.049Z,8.28
2023-04-14T00:35:29.054Z,8.24
2023-04-14T00:36:29.037Z,8.24
2023-04-14T00:37:29.016Z,8.21
2023-04-14T00:38:29.006Z,8.20
2023-04-14T00:39:28.994Z,8.20
2023-04-14T00:40:29.003Z,8.21
2023-04-14T00:41:28.972Z,8.23
2023-04-14T00:42:28.972Z,8.24
2023-04-14T00:43:28.960Z,8.24
2023-04-14T00:44:28.943Z,8.23
2023-04-14T00:45:28.949Z,8.21
2023-04-14T00:46:29.050Z,8.23
2023-04-14T00:47:28.934Z,8.21
2023-04-14T00:48:28.909Z,8.23
2023-04-14T00:49:28.886Z,8.26
2023-04-14T00:50:28.893Z,8.23
2023-04-14T00:51:28.866Z,8.21
2023-04-14T00:52:28.861Z,8.21
2023-04-14T00:53:28.848Z,8.21
2023-04-14T00:54:28.843Z,8.23
2023-04-14T00:55:28.850Z,8.23
2023-04-14T00:56:28.820Z,8.26
2023-04-14T00:57:28.812Z,8.23
2023-04-14T00:58:28.819Z,8.23
2023-04-14T00:59:28.844Z,8.21
2023-04-14T01:00:28.794Z,8.20
2023-04-14T01:01:28.818Z,8.20
2023-04-14T01:02:28.993Z,8.19
2023-04-14T01:03:28.982Z,8.16
2023-04-14T01:04:40.540Z,8.16
2023-04-14T01:05:29.779Z,8.19
2023-04-14T01:06:28.725Z,8.17
2023-04-14T01:07:28.694Z,8.17
2023-04-14T01:08:28.714Z,8.17
2023-04-14T01:09:28.695Z,8.16
2023-04-14T01:10:28.699Z,8.17
2023-04-14T01:11:28.654Z,8.17
2023-04-14T01:12:28.664Z,8.16
2023-04-14T01:13:28.636Z,8.14
2023-04-14T01:14:28.632Z,8.10
2023-04-14T01:15:28.630Z,8.05
2023-04-14T01:16:28.698Z,8.02
2023-04-14T01:17:28.607Z,7.99
2023-04-14T01:18:28.587Z,8.01
2023-04-14T01:19:28.578Z,7.99
2023-04-14T01:20:28.580Z,7.98
2023-04-14T01:21:28.561Z,7.96
2023-04-14T01:22:28.563Z,7.96
2023-04-14T01:23:28.527Z,7.96
2023-04-14T01:24:28.528Z,7.95
2023-04-14T01:25:28.532Z,7.94
2023-04-14T01:26:28.499Z,7.94
2023-04-14T01:27:28.494Z,7.94
2023-04-14T01:28:28.480Z,7.94
2023-04-14T01:29:28.469Z,7.98
2023-04-14T01:30:28.471Z,7.98
2023-04-14T01:31:28.510Z,7.99
2023-04-14T01:32:28.458Z,7.99
2023-04-14T01:33:28.424Z,7.99
2023-04-14T01:34:28.412Z,7.98
2023-04-14T01:35:28.420Z,7.98
2023-04-14T01:36:28.390Z,7.95
2023-04-14T01:37:28.390Z,7.99
2023-04-14T01:38:28.366Z,7.99
2023-04-14T01:39:28.365Z,7.96
2023-04-14T01:40:28.367Z,7.96
2023-04-14T01:41:28.345Z,7.95
2023-04-14T01:42:28.327Z,7.95
2023-04-14T01:43:28.326Z,7.95
2023-04-14T01:44:28.324Z,7.94
2023-04-14T01:45:28.337Z,7.88
2023-04-14T01:46:28.283Z,7.91
2023-04-14T01:47:28.281Z,7.94
2023-04-14T01:48:28.295Z,7.94
2023-04-14T01:49:28.330Z,7.94
2023-04-14T01:50:28.256Z,7.87
2023-04-14T01:51:28.235Z,7.84
2023-04-14T01:52:28.224Z,7.80
2023-04-14T01:53:28.221Z,7.77
2023-04-14T01:54:28.214Z,7.76
2023-04-14T01:55:28.215Z,7.76
2023-04-14T01:56:28.179Z,7.78
2023-04-14T01:57:28.171Z,7.81
2023-04-14T01:58:28.159Z,7.84
2023-04-14T01:59:28.158Z,7.87
2023-04-14T02:00:28.163Z,7.87
2023-04-14T02:01:28.196Z,7.88
2023-04-14T02:02:28.268Z,7.87
2023-04-14T02:03:28.148Z,7.87
2023-04-14T02:04:28.100Z,7.87
2023-04-14T02:05:28.102Z,7.88
2023-04-14T02:06:28.073Z,7.88
2023-04-14T02:07:28.069Z,7.84
2023-04-14T02:08:28.055Z,7.80
2023-04-14T02:09:28.062Z,7.78
2023-04-14T02:10:28.043Z,7.76
2023-04-14T02:11:28.029Z,7.73
2023-04-14T02:12:28.022Z,7.69
2023-04-14T02:13:28.015Z,7.66
2023-04-14T02:14:27.985Z,7.64
2023-04-14T02:15:27.995Z,7.61
2023-04-14T02:16:27.988Z,7.64
2023-04-14T02:17:27.997Z,7.66
2023-04-14T02:18:27.945Z,7.69
2023-04-14T02:19:27.941Z,7.64
2023-04-14T02:20:27.955Z,7.62
2023-04-14T02:21:27.923Z,7.61
2023-04-14T02:22:27.902Z,7.64
2023-04-14T02:23:27.895Z,7.64
2023-04-14T02:24:27.892Z,7.66
2023-04-14T02:25:27.891Z,7.66
2023-04-14T02:26:27.866Z,7.68
2023-04-14T02:27:27.856Z,7.73
2023-04-14T02:28:27.847Z,7.73
2023-04-14T02:29:27.843Z,7.69
2023-04-14T02:30:27.854Z,7.69
2023-04-14T02:31:27.815Z,7.66
2023-04-14T02:32:27.867Z,7.66
2023-04-14T02:33:27.802Z,7.69
2023-04-14T02:34:27.776Z,7.71
2023-04-14T02:35:27.785Z,7.71
2023-04-14T02:36:27.754Z,7.69
2023-04-14T02:37:27.751Z,7.69
2023-04-14T02:38:27.748Z,7.69
2023-04-14T02:39:27.731Z,7.66
2023-04-14T02:40:27.727Z,7.64
2023-04-14T02:41:27.718Z,7.64
2023-04-14T02:42:27.692Z,7.61
2023-04-14T02:43:27.706Z,7.62
2023-04-14T02:44:27.675Z,7.66
2023-04-14T02:45:27.671Z,7.64
2023-04-14T02:46:27.688Z,7.62
2023-04-14T02:47:27.655Z,7.58
2023-04-14T02:48:27.635Z,7.57
2023-04-14T02:49:27.654Z,7.52
2023-04-14T02:50:27.624Z,7.49
2023-04-14T02:51:27.614Z,7.43
2023-04-14T02:52:27.600Z,7.43
2023-04-14T02:53:27.591Z,7.44
2023-04-14T02:54:27.587Z,7.44
2023-04-14T02:55:27.578Z,7.42
2023-04-14T02:56:27.549Z,7.37
2023-04-14T02:57:27.546Z,7.34
2023-04-14T02:58:27.538Z,7.31
2023-04-14T02:59:27.526Z,7.33
2023-04-14T03:00:27.522Z,7.26
2023-04-14T03:01:27.537Z,7.28
2023-04-14T03:02:27.692Z,7.26
2023-04-14T03:03:27.529Z,7.25
2023-04-14T03:04:27.516Z,7.24
2023-04-14T03:05:27.477Z,7.22
2023-04-14T03:06:27.455Z,7.19
2023-04-14T03:07:27.445Z,7.16
2023-04-14T03:08:27.436Z,7.15
2023-04-14T03:09:27.418Z,7.11
2023-04-14T03:10:27.416Z,7.10
2023-04-14T03:11:27.413Z,7.07
2023-04-14T03:12:27.387Z,7.04
2023-04-14T03:13:27.381Z,7.03
2023-04-14T03:14:27.374Z,7.01
2023-04-14T03:15:27.369Z,6.99
2023-04-14T03:16:27.419Z,6.97
2023-04-14T03:17:27.380Z,6.96
2023-04-14T03:18:27.326Z,6.97
2023-04-14T03:19:27.324Z,6.96
2023-04-14T03:20:27.316Z,6.93
2023-04-14T03:21:27.304Z,6.89
2023-04-14T03:22:27.278Z,6.88
2023-04-14T03:23:27.276Z,6.86
2023-04-14T03:24:27.267Z,6.86
2023-04-14T03:25:27.267Z,6.88
2023-04-14T03:26:27.235Z,6.88
2023-04-14T03:27:27.232Z,6.86
2023-04-14T03:28:27.216Z,6.83
2023-04-14T03:29:27.214Z,6.81
2023-04-14T03:30:27.197Z,6.79
2023-04-14T03:31:27.218Z,6.78
2023-04-14T03:32:27.190Z,6.78
2023-04-14T03:33:27.169Z,6.78
2023-04-14T03:34:27.151Z,6.75
2023-04-14T03:35:27.147Z,6.74
2023-04-14T03:36:27.168Z,6.75
2023-04-14T03:37:27.130Z,6.73
2023-04-14T03:38:27.107Z,6.70
2023-04-14T03:39:27.107Z,6.67
2023-04-14T03:40:27.089Z,6.63
2023-04-14T03:41:27.103Z,6.57
2023-04-14T03:42:27.067Z,6.57
2023-04-14T03:43:27.063Z,6.56
2023-04-14T03:44:27.042Z,6.53
2023-04-14T03:45:27.047Z,6.52
2023-04-14T03:46:27.076Z,6.55
2023-04-14T03:47:27.068Z,6.53
2023-04-14T03:48:27.002Z,6.52
2023-04-14T03:49:27.004Z,6.52
2023-04-14T03:50:26.995Z,6.49
2023-04-14T03:51:26.991Z,6.47
2023-04-14T03:52:26.965Z,6.49
2023-04-14T03:53:26.971Z,6.49
2023-04-14T03:54:26.943Z,6.46
2023-04-14T03:55:26.948Z,6.45
2023-04-14T03:56:26.931Z,6.46
2023-04-14T03:57:26.917Z,6.46
2023-04-14T03:58:26.911Z,6.42
2023-04-14T03:59:26.900Z,6.40
2023-04-14T04:00:26.892Z,6.37
2023-04-14T04:01:26.894Z,6.35
2023-04-14T04:02:27.015Z,6.31
2023-04-14T04:03:27.102Z,6.28
2023-04-14T04:04:26.918Z,6.25
2023-04-14T04:05:26.833Z,6.28
2023-04-14T04:06:26.841Z,6.27
2023-04-14T04:07:26.816Z,6.28
2023-04-14T04:08:26.815Z,6.25
2023-04-14T04:09:26.790Z,6.24
2023-04-14T04:10:26.777Z,6.24
2023-04-14T04:11:26.789Z,6.18
2023-04-14T04:12:26.758Z,6.13
2023-04-14T04:13:26.762Z,6.06
2023-04-14T04:14:26.735Z,6.03
2023-04-14T04:15:26.727Z,6.02
2023-04-14T04:16:26.760Z,5.98
2023-04-14T04:17:26.728Z,5.95
2023-04-14T04:18:26.696Z,6.00
2023-04-14T04:19:26.700Z,6.00
2023-04-14T04:20:26.677Z,6.02
2023-04-14T04:21:26.679Z,6.03
2023-04-14T04:22:26.656Z,6.02
2023-04-14T04:23:26.644Z,5.97
2023-04-14T04:24:26.636Z,5.95
2023-04-14T04:25:26.623Z,5.95
2023-04-14T04:26:26.622Z,5.94
2023-04-14T04:27:28.155Z,5.93
2023-04-14T04:28:26.596Z,5.90
2023-04-14T04:29:26.583Z,5.90
2023-04-14T04:30:26.586Z,5.88
2023-04-14T04:31:26.556Z,5.85
2023-04-14T04:32:26.699Z,5.84
2023-04-14T04:33:26.487Z,5.84
2023-04-14T04:34:26.490Z,5.80
2023-04-14T04:35:26.473Z,5.80
2023-04-14T04:36:26.524Z,5.77
2023-04-14T04:37:26.500Z,5.73
2023-04-14T04:38:26.486Z,5.67
2023-04-14T04:39:26.478Z,5.65
2023-04-14T04:40:26.461Z,5.59
2023-04-14T04:41:26.494Z,5.55
2023-04-14T04:42:26.449Z,5.51
2023-04-14T04:43:26.438Z,5.54
2023-04-14T04:44:26.387Z,5.52
2023-04-14T04:45:26.371Z,5.51
2023-04-14T04:46:26.437Z,5.52
2023-04-14T04:47:26.393Z,5.55
2023-04-14T04:48:26.338Z,5.57
2023-04-14T04:49:26.380Z,5.58
2023-04-14T04:50:26.361Z,5.59
2023-04-14T04:51:26.373Z,5.59
2023-04-14T04:52:26.294Z,5.59
2023-04-14T04:53:26.283Z,5.59
2023-04-14T04:54:26.278Z,5.58
2023-04-14T04:55:26.267Z,5.57
2023-04-14T04:56:26.263Z,5.57
2023-04-14T04:57:26.245Z,5.58
2023-04-14T04:58:26.225Z,5.58
2023-04-14T04:59:26.227Z,5.62
2023-04-14T05:00:26.207Z,5.59
2023-04-14T05:01:26.301Z,5.61
2023-04-14T05:02:26.298Z,5.61
2023-04-14T05:03:26.247Z,5.61
2023-04-14T05:04:26.182Z,5.59
2023-04-14T05:05:26.162Z,5.59
2023-04-14T05:06:26.164Z,5.59
2023-04-14T05:07:26.138Z,5.58
2023-04-14T05:08:26.121Z,5.57
2023-04-14T05:09:26.124Z,5.58
2023-04-14T05:10:26.104Z,5.59
2023-04-14T05:11:26.114Z,5.59
2023-04-14T05:12:26.101Z,5.59
2023-04-14T05:13:26.073Z,5.59
2023-04-14T05:14:27.572Z,5.57
2023-04-14T05:15:26.054Z,5.55
2023-04-14T05:16:26.138Z,5.54
2023-04-14T05:17:26.085Z,5.54
2023-04-14T05:18:26.020Z,5.58
2023-04-14T05:19:26.011Z,5.61
2023-04-14T05:20:26.006Z,5.61
2023-04-14T05:21:26.002Z,5.61
2023-04-14T05:22:25.974Z,5.59
2023-04-14T05:23:25.979Z,5.58
2023-04-14T05:24:25.952Z,5.52
2023-04-14T05:25:25.960Z,5.50
2023-04-14T05:26:51.224Z,5.48
2023-04-14T05:27:26.935Z,5.48
2023-04-14T05:28:25.917Z,5.50
2023-04-14T05:29:25.910Z,5.50
2023-04-14T05:30:25.896Z,5.44
2023-04-14T05:31:25.935Z,5.43
2023-04-14T05:32:27.143Z,5.40
2023-04-14T05:33:25.867Z,5.39
2023-04-14T05:34:25.859Z,5.37
2023-04-14T05:35:25.862Z,5.37
2023-04-14T05:36:25.841Z,5.37
2023-04-14T05:37:25.825Z,5.41
2023-04-14T05:38:25.809Z,5.43
2023-04-14T05:39:25.824Z,5.48
2023-04-14T05:40:25.821Z,5.52
2023-04-14T05:41:25.791Z,5.57
2023-04-14T05:42:25.830Z,5.54
2023-04-14T05:43:25.764Z,5.55
2023-04-14T05:44:25.749Z,5.57
2023-04-14T05:45:25.740Z,5.55
2023-04-14T05:46:25.773Z,5.54
2023-04-14T05:47:25.741Z,5.54
2023-04-14T05:48:25.710Z,5.54
2023-04-14T05:49:25.699Z,5.50
2023-04-14T05:50:25.693Z,5.48
2023-04-14T05:51:25.694Z,5.47
2023-04-14T05:52:25.683Z,5.51
2023-04-14T05:53:25.662Z,5.52
2023-04-14T05:54:25.648Z,5.54
2023-04-14T05:55:25.626Z,5.54
2023-04-14T05:56:25.640Z,5.54
2023-04-14T05:57:25.616Z,5.52
2023-04-14T05:58:25.604Z,5.52
2023-04-14T05:59:25.607Z,5.52
2023-04-14T06:00:25.585Z,5.55
2023-04-14T06:01:25.591Z,5.57
2023-04-14T06:02:25.763Z,5.61
2023-04-14T06:03:25.748Z,5.62
2023-04-14T06:04:25.646Z,5.67
2023-04-14T06:05:25.542Z,5.73
2023-04-14T06:06:25.540Z,5.75
2023-04-14T06:07:25.504Z,5.77
2023-04-14T06:08:25.523Z,5.77
2023-04-14T06:09:25.486Z,5.77
2023-04-14T06:10:25.489Z,5.76
2023-04-14T06:11:25.479Z,5.79
2023-04-14T06:12:25.477Z,5.79
2023-04-14T06:13:25.444Z,5.79
2023-04-14T06:14:25.454Z,5.79
2023-04-14T06:15:25.480Z,5.79
2023-04-14T06:16:25.467Z,5.80
2023-04-14T06:17:25.432Z,5.82
2023-04-14T06:18:25.418Z,5.84
2023-04-14T06:19:25.438Z,5.84
2023-04-14T06:20:25.379Z,5.84
2023-04-14T06:21:25.379Z,5.87
2023-04-14T06:22:25.354Z,5.93
2023-04-14T06:23:25.340Z,5.95
2023-04-14T06:24:25.344Z,5.97
2023-04-14T06:25:25.332Z,6.00
2023-04-14T06:26:25.334Z,6.03
2023-04-14T06:27:25.312Z,6.03
2023-04-14T06:28:25.292Z,6.02
2023-04-14T06:29:25.274Z,6.00
2023-04-14T06:30:25.268Z,6.00
2023-04-14T06:31:25.309Z,5.98
2023-04-14T06:32:25.263Z,5.98
2023-04-14T06:33:25.245Z,6.00
2023-04-14T06:34:25.228Z,6.02
2023-04-14T06:35:33.017Z,6.05
2023-04-14T06:36:26.226Z,6.06
2023-04-14T06:37:25.200Z,6.09
2023-04-14T06:38:25.200Z,6.11
2023-04-14T06:39:25.200Z,6.12
2023-04-14T06:40:25.166Z,6.11
2023-04-14T06:41:25.162Z,6.11
2023-04-14T06:42:25.145Z,6.11
2023-04-14T06:43:25.130Z,6.13
2023-04-14T06:44:25.126Z,6.15
2023-04-14T06:45:25.119Z,6.16
2023-04-14T06:46:25.159Z,6.19
2023-04-14T06:47:25.097Z,6.24
2023-04-14T06:48:25.090Z,6.27
2023-04-14T06:49:25.083Z,6.30
2023-04-14T06:50:25.064Z,6.31
2023-04-14T06:51:25.065Z,6.31
2023-04-14T06:52:25.051Z,6.32
2023-04-14T06:53:25.038Z,6.30
2023-04-14T06:54:25.021Z,6.31
2023-04-14T06:55:25.005Z,6.31
2023-04-14T06:56:25.025Z,6.34
2023-04-14T06:57:25.000Z,6.35
2023-04-14T06:58:25.007Z,6.37
2023-04-14T06:59:24.970Z,6.38
2023-04-14T07:00:24.966Z,6.38
2023-04-14T07:01:24.996Z,6.43
2023-04-14T07:02:25.040Z,6.46
2023-04-14T07:03:24.964Z,6.52
2023-04-14T07:04:24.962Z,6.55
2023-04-14T07:05:24.904Z,6.55
2023-04-14T07:06:24.920Z,6.56
2023-04-14T07:07:24.878Z,6.57
2023-04-14T07:08:24.871Z,6.57
2023-04-14T07:09:24.918Z,6.60
2023-04-14T07:10:24.853Z,6.57
2023-04-14T07:11:24.852Z,6.60
2023-04-14T07:12:24.828Z,6.60
2023-04-14T07:13:24.812Z,6.60
2023-04-14T07:14:24.827Z,6.64
2023-04-14T07:15:24.805Z,6.63
2023-04-14T07:16:24.962Z,6.64
2023-04-14T07:17:24.817Z,6.64
2023-04-14T07:18:24.772Z,6.63
2023-04-14T07:19:24.757Z,6.60
2023-04-14T07:20:24.749Z,6.61
2023-04-14T07:21:24.748Z,6.63
2023-04-14T07:22:24.733Z,6.63
2023-04-14T07:23:24.716Z,6.61
2023-04-14T07:24:24.718Z,6.63
2023-04-14T07:25:24.692Z,6.64
2023-04-14T07:26:24.697Z,6.67
2023-04-14T07:27:24.686Z,6.70
2023-04-14T07:28:24.661Z,6.74
2023-04-14T07:29:24.649Z,6.78
2023-04-14T07:30:24.655Z,6.79
2023-04-14T07:31:24.719Z,6.81
2023-04-14T07:32:24.662Z,6.83
2023-04-14T07:33:24.630Z,6.85
2023-04-14T07:34:24.598Z,6.85
2023-04-14T07:35:24.587Z,6.88
2023-04-14T07:36:24.589Z,6.91
2023-04-14T07:37:24.565Z,6.93
2023-04-14T07:38:24.555Z,6.93
2023-04-14T07:39:26.781Z,6.96
2023-04-14T07:40:24.543Z,6.99
2023-04-14T07:41:24.532Z,7.00
2023-04-14T07:42:24.518Z,7.01
2023-04-14T07:43:24.517Z,7.04
2023-04-14T07:44:24.494Z,7.08
2023-04-14T07:45:24.476Z,7.10
2023-04-14T07:46:24.511Z,7.08
2023-04-14T07:47:24.535Z,7.10
2023-04-14T07:48:24.456Z,7.13
2023-04-14T07:49:24.447Z,7.18
2023-04-14T07:50:24.430Z,7.19
2023-04-14T07:51:24.441Z,7.22
2023-04-14T07:52:24.412Z,7.25
2023-04-14T07:53:24.393Z,7.29
2023-04-14T07:54:24.457Z,7.33
2023-04-14T07:55:25.551Z,7.36
2023-04-14T07:56:24.395Z,7.39
2023-04-14T07:57:24.360Z,7.40
2023-04-14T07:58:26.151Z,7.46
2023-04-14T07:59:24.338Z,7.49
2023-04-14T08:00:24.504Z,7.50
2023-04-14T08:01:24.330Z,7.54
2023-04-14T08:02:24.421Z,7.55
2023-04-14T08:03:24.522Z,7.61
2023-04-14T08:04:24.319Z,7.66
2023-04-14T08:05:24.296Z,7.71
2023-04-14T08:06:24.296Z,7.78
2023-04-14T08:07:24.260Z,7.86
2023-04-14T08:08:24.245Z,7.94
2023-04-14T08:09:24.234Z,8.04
2023-04-14T08:10:24.282Z,8.13
2023-04-14T08:11:24.226Z,8.23
2023-04-14T08:12:24.217Z,8.37
2023-04-14T08:13:24.191Z,8.50
2023-04-14T08:14:24.188Z,8.67
2023-04-14T08:15:24.177Z,8.81
2023-04-14T08:16:24.202Z,8.98
2023-04-14T08:17:24.163Z,9.14
2023-04-14T08:18:24.159Z,9.29
2023-04-14T08:19:24.139Z,9.42
2023-04-14T08:20:24.181Z,9.59
2023-04-14T08:21:24.114Z,9.77
2023-04-14T08:22:24.096Z,9.93
2023-04-14T08:23:24.089Z,10.08
2023-04-14T08:24:24.071Z,10.18
2023-04-14T08:25:24.075Z,10.31
2023-04-14T08:26:24.064Z,10.41
2023-04-14T08:27:24.036Z,10.55
2023-04-14T08:28:24.038Z,10.68
2023-04-14T08:29:24.027Z,10.80
2023-04-14T08:30:24.230Z,10.93
2023-04-14T08:31:24.099Z,11.08
2023-04-14T08:32:24.022Z,11.22
2023-04-14T08:33:23.972Z,11.36
2023-04-14T08:34:28.687Z,11.48
2023-04-14T08:35:35.696Z,11.62
2023-04-14T08:36:24.941Z,11.69
2023-04-14T08:37:23.935Z,11.71
2023-04-14T08:38:23.924Z,11.77
2023-04-14T08:39:23.918Z,11.79
2023-04-14T08:40:23.942Z,11.91
2023-04-14T08:41:23.964Z,11.99
2023-04-14T08:42:23.882Z,12.13
2023-04-14T08:43:23.862Z,12.22
2023-04-14T08:44:23.861Z,12.25
2023-04-14T08:45:23.877Z,12.35
2023-04-14T08:46:23.948Z,12.43
2023-04-14T08:47:23.862Z,12.61
2023-04-14T08:48:25.579Z,12.72
2023-04-14T08:49:23.801Z,12.73
2023-04-14T08:50:23.885Z,12.81
2023-04-14T08:51:23.779Z,12.83
2023-04-14T08:52:23.781Z,12.91
2023-04-14T08:53:23.804Z,13.02
2023-04-14T08:54:23.758Z,13.11
2023-04-14T08:55:23.765Z,13.23
2023-04-14T08:56:23.806Z,13.29
2023-04-14T08:57:23.718Z,13.38
2023-04-14T08:58:23.717Z,13.46
2023-04-14T08:59:23.700Z,13.49
2023-04-14T09:00:23.771Z,13.53
2023-04-14T09:01:23.746Z,13.53
2023-04-14T09:02:23.737Z,13.53
2023-04-14T09:03:23.906Z,13.53
2023-04-14T09:04:23.877Z,13.53
2023-04-14T09:05:23.649Z,13.51
2023-04-14T09:06:23.647Z,13.53
2023-04-14T09:07:23.626Z,13.53
2023-04-14T09:08:23.613Z,13.54
2023-04-14T09:09:23.597Z,13.57
2023-04-14T09:10:23.610Z,13.55
2023-04-14T09:11:23.573Z,13.54
2023-04-14T09:12:23.569Z,13.58
2023-04-14T09:13:23.553Z,13.61
2023-04-14T09:14:23.552Z,13.68
2023-04-14T09:15:23.540Z,13.78
2023-04-14T09:16:23.556Z,13.86
2023-04-14T09:17:23.564Z,13.97
2023-04-14T09:18:23.505Z,14.15
2023-04-14T09:19:23.487Z,14.34
2023-04-14T09:20:38.444Z,14.37
2023-04-14T09:21:31.709Z,14.36
2023-04-14T09:22:24.461Z,14.52
2023-04-14T09:23:23.451Z,14.59
2023-04-14T09:24:23.475Z,14.56
2023-04-14T09:25:23.482Z,14.53
2023-04-14T09:26:23.432Z,14.51
2023-04-14T09:27:23.408Z,14.53
2023-04-14T09:28:23.407Z,14.64
2023-04-14T09:29:23.395Z,14.87
2023-04-14T09:30:23.402Z,15.12
2023-04-14T09:31:23.412Z,15.36
2023-04-14T09:32:23.359Z,15.51
2023-04-14T09:33:23.360Z,15.68
2023-04-14T09:34:23.415Z,15.77
2023-04-14T09:35:23.336Z,15.87
2023-04-14T09:36:23.318Z,15.87
2023-04-14T09:37:23.294Z,15.93
2023-04-14T09:38:23.294Z,16.00
2023-04-14T09:39:23.289Z,16.02
2023-04-14T09:40:23.287Z,16.09
2023-04-14T09:41:23.254Z,16.05
2023-04-14T09:42:23.245Z,16.13
2023-04-14T09:43:23.239Z,16.33
2023-04-14T09:44:23.227Z,16.58
2023-04-14T09:45:23.226Z,16.82
2023-04-14T09:46:23.245Z,17.02
2023-04-14T09:47:23.244Z,17.20
2023-04-14T09:48:23.190Z,17.34
2023-04-14T09:49:23.186Z,17.43
2023-04-14T09:50:23.202Z,17.46
2023-04-14T09:51:23.147Z,17.49
2023-04-14T09:52:23.153Z,17.45
2023-04-14T09:53:23.134Z,17.32
2023-04-14T09:54:23.121Z,17.46
2023-04-14T09:55:23.126Z,17.41
2023-04-14T09:56:23.097Z,17.45
2023-04-14T09:57:23.093Z,17.52
2023-04-14T09:58:26.127Z,17.53
2023-04-14T09:59:23.073Z,17.68
2023-04-14T10:00:23.083Z,17.83
2023-04-14T10:01:23.074Z,18.03
2023-04-14T10:02:23.231Z,18.30
2023-04-14T10:03:23.222Z,18.54
2023-04-14T10:04:24.011Z,18.64
2023-04-14T10:05:23.018Z,18.76
2023-04-14T10:06:22.999Z,18.89
2023-04-14T10:07:23.072Z,18.96
2023-04-14T10:08:22.964Z,18.85
2023-04-14T10:09:22.965Z,18.83
2023-04-14T10:10:22.967Z,19.00
2023-04-14T10:11:22.996Z,19.19
2023-04-14T10:12:22.926Z,19.34
2023-04-14T10:13:22.948Z,19.26
2023-04-14T10:14:22.904Z,19.35
2023-04-14T10:15:22.910Z,19.47
2023-04-14T10:16:22.924Z,19.52
2023-04-14T10:17:22.933Z,19.71
2023-04-14T10:18:22.875Z,19.74
2023-04-14T10:19:22.859Z,19.74
2023-04-14T10:20:22.856Z,19.75
2023-04-14T10:21:22.904Z,19.71
2023-04-14T10:22:22.817Z,19.89
2023-04-14T10:23:22.816Z,20.11
2023-04-14T10:24:22.806Z,20.29
2023-04-14T10:25:22.804Z,20.37
2023-04-14T10:26:22.776Z,20.49
2023-04-14T10:27:22.774Z,20.56
2023-04-14T10:28:22.791Z,20.56
2023-04-14T10:29:22.760Z,20.48
2023-04-14T10:30:22.759Z,20.53
2023-04-14T10:31:22.792Z,20.65
2023-04-14T10:32:22.818Z,20.74
2023-04-14T10:33:22.716Z,20.67
2023-04-14T10:34:22.696Z,20.79
2023-04-14T10:35:22.704Z,20.93
2023-04-14T10:36:22.680Z,21.03
2023-04-14T10:37:22.666Z,21.23
2023-04-14T10:38:22.657Z,21.43
2023-04-14T10:39:22.650Z,21.60
2023-04-14T10:40:23.394Z,21.77
2023-04-14T10:41:22.628Z,21.71
2023-04-14T10:42:22.613Z,21.55
2023-04-14T10:43:22.613Z,21.35
2023-04-14T10:44:22.609Z,21.00
2023-04-14T10:45:22.611Z,21.10
2023-04-14T10:46:22.562Z,21.25
2023-04-14T10:47:22.615Z,21.32
2023-04-14T10:48:22.541Z,21.51
2023-04-14T10:49:22.549Z,21.50
2023-04-14T10:50:22.538Z,21.45
2023-04-14T10:51:22.521Z,21.34
2023-04-14T10:52:22.541Z,21.22
2023-04-14T10:53:22.498Z,21.35
2023-04-14T10:54:22.481Z,21.58
2023-04-14T10:55:22.488Z,21.63
2023-04-14T10:56:22.459Z,21.59
2023-04-14T10:57:22.471Z,21.69
2023-04-14T10:58:22.480Z,21.69
2023-04-14T10:59:22.433Z,21.94
2023-04-14T11:00:22.442Z,22.15
2023-04-14T11:01:22.459Z,22.31
2023-04-14T11:02:22.527Z,22.49
2023-04-14T11:03:22.507Z,22.66
2023-04-14T11:04:22.438Z,22.81
2023-04-14T11:05:22.389Z,22.83
2023-04-14T11:06:22.357Z,22.81
2023-04-14T11:07:22.345Z,22.67
2023-04-14T11:08:22.340Z,22.48
2023-04-14T11:09:22.327Z,22.15
2023-04-14T11:10:22.323Z,21.80
2023-04-14T11:11:22.339Z,21.55
2023-04-14T11:12:22.306Z,21.41
2023-04-14T11:13:22.285Z,21.26
2023-04-14T11:14:22.277Z,21.18
2023-04-14T11:15:22.263Z,21.01
2023-04-14T11:16:22.284Z,20.83
2023-04-14T11:17:22.387Z,20.71
2023-04-14T11:18:22.258Z,20.58
2023-04-14T11:19:22.220Z,20.36
2023-04-14T11:20:22.223Z,20.17
2023-04-14T11:21:22.224Z,19.96
2023-04-14T11:22:22.187Z,19.72
2023-04-14T11:23:22.183Z,19.59
2023-04-14T11:24:22.170Z,19.49
2023-04-14T11:25:24.530Z,19.38
2023-04-14T11:26:22.159Z,19.26
2023-04-14T11:27:22.144Z,19.17
2023-04-14T11:28:22.117Z,19.09
2023-04-14T11:29:22.123Z,19.13
2023-04-14T11:30:22.102Z,19.24
2023-04-14T11:31:23.328Z,19.23
2023-04-14T11:32:22.135Z,19.13
2023-04-14T11:33:22.076Z,19.01
2023-04-14T11:34:22.064Z,18.86
2023-04-14T11:35:22.045Z,18.76
2023-04-14T11:36:22.048Z,18.64
2023-04-14T11:37:22.849Z,18.51
2023-04-14T11:38:22.018Z,18.34
2023-04-14T11:39:22.012Z,18.21
2023-04-14T11:40:21.997Z,18.12
2023-04-14T11:41:22.022Z,18.01
2023-04-14T11:42:21.978Z,17.90
2023-04-14T11:43:22.980Z,17.87
2023-04-14T11:44:21.960Z,17.79
2023-04-14T11:45:21.968Z,17.72
2023-04-14T11:46:21.977Z,17.63
2023-04-14T11:47:21.958Z,17.59
2023-04-14T11:48:21.987Z,17.57
2023-04-14T11:49:22.319Z,17.57
2023-04-14T11:50:21.911Z,17.57
2023-04-14T11:51:21.902Z,17.57
2023-04-14T11:52:21.876Z,17.53
2023-04-14T11:53:21.867Z,17.49
2023-04-14T11:54:21.866Z,17.45
2023-04-14T11:55:21.866Z,17.41
2023-04-14T11:56:21.864Z,17.38
2023-04-14T11:57:21.831Z,17.34
2023-04-14T11:58:21.810Z,17.30
2023-04-14T11:59:21.796Z,17.28
2023-04-14T12:00:21.788Z,17.31
2023-04-14T12:01:21.799Z,17.39
2023-04-14T12:02:21.960Z,17.45
2023-04-14T12:03:21.985Z,17.53
2023-04-14T12:04:21.989Z,17.59
2023-04-14T12:05:21.795Z,17.71
2023-04-14T12:06:21.731Z,17.87
2023-04-14T12:07:21.712Z,18.08
2023-04-14T12:08:21.708Z,18.27
2023-04-14T12:09:21.711Z,18.43
2023-04-14T12:10:21.684Z,18.46
2023-04-14T12:11:21.698Z,18.43
2023-04-14T12:12:21.657Z,18.45
2023-04-14T12:13:21.658Z,18.43
2023-04-14T12:14:21.640Z,18.45
2023-04-14T12:15:21.642Z,18.51
2023-04-14T12:16:21.678Z,18.81
2023-04-14T12:17:21.666Z,19.08
2023-04-14T12:18:21.959Z,19.34
2023-04-14T12:19:21.615Z,19.56
2023-04-14T12:20:21.581Z,19.78
2023-04-14T12:21:21.597Z,19.97
2023-04-14T12:22:21.553Z,20.12
2023-04-14T12:23:21.543Z,20.12
2023-04-14T12:24:21.530Z,20.15
2023-04-14T12:25:21.525Z,20.26
2023-04-14T12:26:21.522Z,20.46
2023-04-14T12:27:21.508Z,20.56
2023-04-14T12:28:21.499Z,20.65
2023-04-14T12:29:21.498Z,20.77
2023-04-14T12:30:21.463Z,20.93
2023-04-14T12:31:21.533Z,21.01
2023-04-14T12:32:21.555Z,21.14
2023-04-14T12:33:21.442Z,21.30
2023-04-14T12:34:21.429Z,21.50
2023-04-14T12:35:21.455Z,21.73
2023-04-14T12:36:21.731Z,21.93
2023-04-14T12:37:21.402Z,22.13
2023-04-14T12:38:21.386Z,22.27
2023-04-14T12:39:21.378Z,22.41
2023-04-14T12:40:21.369Z,22.49
2023-04-14T12:41:21.373Z,22.61
2023-04-14T12:42:21.361Z,22.74
2023-04-14T12:43:21.338Z,22.80
2023-04-14T12:44:21.332Z,22.83
2023-04-14T12:45:21.320Z,22.81
2023-04-14T12:46:21.343Z,22.92
2023-04-14T12:47:21.290Z,23.06
2023-04-14T12:48:21.292Z,23.17
2023-04-14T12:49:21.268Z,23.22
2023-04-14T12:50:21.272Z,23.34
2023-04-14T12:51:21.257Z,23.51
2023-04-14T12:52:21.233Z,23.55
2023-04-14T12:53:21.226Z,23.66
2023-04-14T12:54:21.210Z,23.48
2023-04-14T12:55:21.220Z,23.39
2023-04-14T12:56:21.204Z,23.17
2023-04-14T12:57:21.194Z,22.93
2023-04-14T12:58:21.164Z,22.73
2023-04-14T12:59:21.165Z,22.48
2023-04-14T13:00:21.142Z,22.30
2023-04-14T13:01:21.276Z,22.11
2023-04-14T13:02:21.220Z,21.93
2023-04-14T13:03:21.297Z,21.74
2023-04-14T13:04:21.318Z,21.56
2023-04-14T13:05:21.116Z,21.35
2023-04-14T13:06:21.094Z,21.08
2023-04-14T13:07:21.075Z,20.85
2023-04-14T13:08:21.086Z,21.01